FMMTFMMI

Guest
Details From FMMT - TOAMASINA
To FMMI - IVATO
Flight Number -
Tags generated
Created
Modified
Stats Distance 117 nm / 216 km
Max Altitude 14,300 ft / 4,359 m
Waypoints 3
Social Downloads 1
Likes 0
Share VATSIM

Download

Looking for another format? Having issues loading an existing format? Contact us
Advertisement - Login to hide

Notes

Basic altitude profile: - Ascent Rate: 2500ft/min - Ascent Speed: 250kts - Cruise Altitude: 12000ft - Cruise Speed: 250kts - Descent Rate: 1500ft/min - Descent Speed: 250kts Options: - Use NATs: yes - Use PACOTS: yes - Use low airways: yes - Use high airways: yes

Route

FMMT IXARI FMMI

ID Type Via Altitude Latitude Longitude Leg Dist Tot Dist Heading (true) Name
O FMMT APT - 0 ft / 0 m -18.10952˚ 49.39254˚ - 0 nm - TOAMASINA
IXARI FIX - 14,300 ft / 4,359 m -18.37944˚ 48.69694˚ 42 nm 42 nm 248° / 248° -
O FMMI APT - 0 ft / 0 m -18.79695˚ 47.47881˚ 73 nm 116 nm 250° / 250° IVATO

Altitude Profile

Advertisement - Login to hide

FMMT

Details ICAO FMMT (TMM)
Name TOAMASINA
Region Comoros, Mayotte, Réunion and Madagascar
Timezone Indian/Antananarivo (UTC+3.0)
Stats Elevation 22 ft / 7 m (AMSL)
Location -18.109517° 49.392536°
Runways 1
Magnetic Variation 14.779° W

METAR

FMMT 131500Z 10002KT 9999 FEW017CB 28/24 Q1013 NOSIG

Decode

TAF

TAF FMMT 131100Z 1312/1412 16010KT 9999 FEW007 SCT017 BKN033 BECMG 1315/1318 00000KT PROB40 TEMPO 1318/1408 4000 SHRA

Decode

Departure Runways

ID Width Length Bearing (true) Bearing (mag) Surface Threshold Offset Overrun Length
01 131 ft / 40 m 7,270 ft / 2,216 m 353.90° 8.68° Asphalt 0 ft / 0 m 100 ft / 30 m
19 131 ft / 40 m 7,270 ft / 2,216 m 173.90° 188.68° Asphalt 0 ft / 0 m 197 ft / 60 m

FMMI

Details ICAO FMMI (TNR)
Name IVATO
Region Comoros, Mayotte, Réunion and Madagascar
Timezone Indian/Antananarivo (UTC+3.0)
Stats Elevation 4,198 ft / 1,280 m (AMSL)
Location -18.796950° 47.478806°
Runways 1
Magnetic Variation 15.160° W

METAR

FMMI 131500Z 06006KT 9999 TS SCT017CB BKN020 22/20 Q1019 TEMPO 4000 TSRA

Decode

TAF

TAF FMMI 131100Z 1312/1418 08010KT 9999 FEW007 SCT017 BKN020 PROB40 TEMPO 1313/1322 4000 TSRA BKN015CB SCT020 BECMG 1317/1320 00000KT

Decode

Destination Runways

ID Width Length Bearing (true) Bearing (mag) Surface Threshold Offset Overrun Length
11 148 ft / 45 m 10,167 ft / 3,099 m 98.92° 114.08° Asphalt 0 ft / 0 m 90 ft / 27 m
29 148 ft / 45 m 10,167 ft / 3,099 m 278.91° 294.07° Asphalt 0 ft / 0 m 90 ft / 27 m

Approach Navaids

Runway Type Ident Frequency Range Bearing (true) Bearing (mag) Slope Elevation
11 Localiser IO 109.50 MHz 18 nm / 33 km 98.89° 114.05° - 4,125 ft / 1,257 m (AMSL)
11 Glidescope IO 109.50 MHz 10 nm / 19 km 98.91° 114.07° 3.00° 4,198 ft / 1,280 m (AMSL)

Popular Alternatives